Main page
METAR-TAF:

METAR-TAF

Airports :

Cincinnati/Northern Kentucky International Airport

Covington, Kentucky, United States

latitude: 39-02-35N, longitude: 084-40-18W, elevation: 895 ft

Current weather observation

The report was made 36 minutes ago, at 23:52 UTC
Wind 9 mph from the East
Temperature 77°F
Humidity 47%
Pressure 30.12 in. Hg
Visibility: 10 miles
Scattered clouds at a height of 25000 ft

METAR: KCVG 232352Z 08008KT 10SM SCT250 25/13 A3012 RMK AO2 SLP191 T02500128 10272 20244 55004

Time: 20:28 (00:28 UTC)

Forecast

The report was made 49 minutes ago, at 23:39 UTC
Forecast valid from 24 at 00 UTC to 25 at 06 UTC
Wind 7 mph from the East/Northeast
Visibility: 6 miles
Few clouds at a height of 25000 ft

TAF: KCVG 232339Z 2400/2506 06006KT P6SM FEW250

Weather observations and forecasts of more than 4000 airports (METAR and TAF reports).

The available stations are represented by yellow and red dots on the map.

Hover mouse over dot to see the name of the station.

Then click to see weather observations and forecasts.

To change the map : click on the green buttons with a black cross to zoom in, on the green button with a dash to zoom out, or on the green arrows for adjacent maps.


METAR-TAF: